sensor_id;sensor_type;location;lat;lon;timestamp;temperature;humidity
30290;DHT22;17105;55.652;37.710;2023-02-28T09:29:26;2.10;62.20
30290;DHT22;17105;55.652;37.710;2023-02-28T09:30:00;2.00;62.70
30290;DHT22;17105;55.652;37.710;2023-02-28T09:30:35;2.00;62.80
30290;DHT22;17105;55.652;37.710;2023-02-28T09:31:13;2.00;62.80
30290;DHT22;17105;55.652;37.710;2023-02-28T09:31:49;2.00;63.10
30290;DHT22;17105;55.652;37.710;2023-02-28T09:32:24;2.00;63.10
30290;DHT22;17105;55.652;37.710;2023-02-28T09:32:58;2.00;63.10
30290;DHT22;17105;55.652;37.710;2023-02-28T09:33:34;2.00;63.30
30290;DHT22;17105;55.652;37.710;2023-02-28T09:34:07;2.00;63.30
30290;DHT22;17105;55.652;37.710;2023-02-28T09:34:44;2.00;63.50
30290;DHT22;17105;55.652;37.710;2023-02-28T09:35:19;2.00;63.60
30290;DHT22;17105;55.652;37.710;2023-02-28T09:35:59;2.00;63.70
30290;DHT22;17105;55.652;37.710;2023-02-28T09:36:34;2.00;63.80
30290;DHT22;17105;55.652;37.710;2023-02-28T09:37:17;2.00;63.90
30290;DHT22;17105;55.652;37.710;2023-02-28T09:37:53;2.10;64.00
30290;DHT22;17105;55.652;37.710;2023-02-28T09:38:27;2.00;64.00
30290;DHT22;17105;55.652;37.710;2023-02-28T09:39:02;2.00;64.60
30290;DHT22;17105;55.652;37.710;2023-02-28T09:39:37;2.10;64.10
30290;DHT22;17105;55.652;37.710;2023-02-28T09:40:12;2.10;64.20
30290;DHT22;17105;55.652;37.710;2023-02-28T09:40:51;2.10;64.30
30290;DHT22;17105;55.652;37.710;2023-02-28T09:41:28;2.10;64.30
30290;DHT22;17105;55.652;37.710;2023-02-28T09:42:05;2.10;64.50
30290;DHT22;17105;55.652;37.710;2023-02-28T09:42:40;2.00;64.50
30290;DHT22;17105;55.652;37.710;2023-02-28T09:43:17;2.10;64.60
30290;DHT22;17105;55.652;37.710;2023-02-28T09:43:56;2.00;64.70
30290;DHT22;17105;55.652;37.710;2023-02-28T09:44:34;2.00;64.90
30290;DHT22;17105;55.652;37.710;2023-02-28T09:45:19;2.00;65.00
30290;DHT22;17105;55.652;37.710;2023-02-28T09:45:59;2.00;65.10
30290;DHT22;17105;55.652;37.710;2023-02-28T09:46:36;2.00;65.20
30290;DHT22;17105;55.652;37.710;2023-02-28T09:47:16;2.00;65.30
30290;DHT22;17105;55.652;37.710;2023-02-28T09:47:56;2.00;65.20
30290;DHT22;17105;55.652;37.710;2023-02-28T09:48:36;2.00;65.50
30290;DHT22;17105;55.652;37.710;2023-02-28T09:49:17;2.00;65.40
30290;DHT22;17105;55.652;37.710;2023-02-28T09:49:53;2.00;65.50
30290;DHT22;17105;55.652;37.710;2023-02-28T09:50:32;2.00;65.80
30290;DHT22;17105;55.652;37.710;2023-02-28T09:51:15;2.00;65.90
30290;DHT22;17105;55.652;37.710;2023-02-28T09:51:59;2.00;65.80
30290;DHT22;17105;55.652;37.710;2023-02-28T09:52:34;2.00;65.80
30290;DHT22;17105;55.652;37.710;2023-02-28T09:53:18;2.00;65.80
30290;DHT22;17105;55.652;37.710;2023-02-28T09:53:53;2.00;66.00
30290;DHT22;17105;55.652;37.710;2023-02-28T09:54:35;2.00;66.20
30290;DHT22;17105;55.652;37.710;2023-02-28T09:55:19;2.10;66.20
30290;DHT22;17105;55.652;37.710;2023-02-28T09:55:58;2.10;66.30
30290;DHT22;17105;55.652;37.710;2023-02-28T09:56:36;2.10;66.40
30290;DHT22;17105;55.652;37.710;2023-02-28T09:57:18;2.10;66.90
30290;DHT22;17105;55.652;37.710;2023-02-28T09:57:53;2.10;66.50
30290;DHT22;17105;55.652;37.710;2023-02-28T09:58:39;2.10;66.70
30290;DHT22;17105;55.652;37.710;2023-02-28T09:59:18;2.10;66.70
30290;DHT22;17105;55.652;37.710;2023-02-28T10:00:05;2.10;66.60
30290;DHT22;17105;55.652;37.710;2023-02-28T10:00:48;2.10;66.60
30290;DHT22;17105;55.652;37.710;2023-02-28T10:01:34;2.10;66.70
30290;DHT22;17105;55.652;37.710;2023-02-28T10:02:24;2.10;66.50
30290;DHT22;17105;55.652;37.710;2023-02-28T10:03:22;2.10;66.60
30290;DHT22;17105;55.652;37.710;2023-02-28T10:04:00;2.20;67.00
30290;DHT22;17105;55.652;37.710;2023-02-28T10:04:44;2.20;66.90
30290;DHT22;17105;55.652;37.710;2023-02-28T10:05:28;2.20;66.70
30290;DHT22;17105;55.652;37.710;2023-02-28T10:06:09;2.20;66.70
30290;DHT22;17105;55.652;37.710;2023-02-28T10:06:49;2.20;66.80
30290;DHT22;17105;55.652;37.710;2023-02-28T10:07:39;2.20;66.90
30290;DHT22;17105;55.652;37.710;2023-02-28T10:08:21;2.20;66.90
30290;DHT22;17105;55.652;37.710;2023-02-28T10:09:02;2.20;67.00
30290;DHT22;17105;55.652;37.710;2023-02-28T10:09:36;2.20;67.00
30290;DHT22;17105;55.652;37.710;2023-02-28T10:10:20;2.20;67.00
30290;DHT22;17105;55.652;37.710;2023-02-28T10:10:57;2.20;66.90
30290;DHT22;17105;55.652;37.710;2023-02-28T10:11:35;2.20;66.90
30290;DHT22;17105;55.652;37.710;2023-02-28T10:12:09;2.20;66.90
30290;DHT22;17105;55.652;37.710;2023-02-28T10:12:47;2.10;67.10
30290;DHT22;17105;55.652;37.710;2023-02-28T10:13:26;2.10;67.20
30290;DHT22;17105;55.652;37.710;2023-02-28T10:14:06;2.10;67.30
30290;DHT22;17105;55.652;37.710;2023-02-28T10:14:47;2.10;67.50
30290;DHT22;17105;55.652;37.710;2023-02-28T10:15:24;2.10;67.60
30290;DHT22;17105;55.652;37.710;2023-02-28T10:16:02;2.10;67.70
30290;DHT22;17105;55.652;37.710;2023-02-28T10:16:41;2.10;67.70
30290;DHT22;17105;55.652;37.710;2023-02-28T10:17:22;2.10;67.90
30290;DHT22;17105;55.652;37.710;2023-02-28T10:18:00;2.10;68.00
30290;DHT22;17105;55.652;37.710;2023-02-28T10:18:45;2.10;68.10
30290;DHT22;17105;55.652;37.710;2023-02-28T10:19:28;2.10;68.10
30290;DHT22;17105;55.652;37.710;2023-02-28T10:20:12;2.10;68.00
30290;DHT22;17105;55.652;37.710;2023-02-28T10:20:47;2.20;68.00
30290;DHT22;17105;55.652;37.710;2023-02-28T10:21:26;2.20;68.10
30290;DHT22;17105;55.652;37.710;2023-02-28T10:22:08;2.20;68.10
30290;DHT22;17105;55.652;37.710;2023-02-28T10:22:52;2.20;68.20
30290;DHT22;17105;55.652;37.710;2023-02-28T10:23:31;2.20;68.20
30290;DHT22;17105;55.652;37.710;2023-02-28T10:24:19;2.20;68.60
30290;DHT22;17105;55.652;37.710;2023-02-28T10:24:57;2.20;68.30
30290;DHT22;17105;55.652;37.710;2023-02-28T10:25:38;2.20;68.30
30290;DHT22;17105;55.652;37.710;2023-02-28T10:26:14;2.20;68.30
30290;DHT22;17105;55.652;37.710;2023-02-28T10:26:48;2.20;68.50
30290;DHT22;17105;55.652;37.710;2023-02-28T10:27:29;2.20;68.50
30290;DHT22;17105;55.652;37.710;2023-02-28T10:28:10;2.30;68.50
30290;DHT22;17105;55.652;37.710;2023-02-28T10:28:45;2.30;68.50
30290;DHT22;17105;55.652;37.710;2023-02-28T10:29:23;2.30;68.40
30290;DHT22;17105;55.652;37.710;2023-02-28T10:30:00;2.30;68.40
30290;DHT22;17105;55.652;37.710;2023-02-28T10:30:36;2.20;68.40
30290;DHT22;17105;55.652;37.710;2023-02-28T10:31:15;2.20;68.40
30290;DHT22;17105;55.652;37.710;2023-02-28T10:31:55;2.30;68.40
30290;DHT22;17105;55.652;37.710;2023-02-28T10:32:33;2.20;68.40
30290;DHT22;17105;55.652;37.710;2023-02-28T10:33:21;2.20;68.40
30290;DHT22;17105;55.652;37.710;2023-02-28T10:33:58;2.20;68.30
30290;DHT22;17105;55.652;37.710;2023-02-28T10:34:33;2.20;68.50
30290;DHT22;17105;55.652;37.710;2023-02-28T10:35:15;2.20;68.90
30290;DHT22;17105;55.652;37.710;2023-02-28T10:35:49;2.20;68.60
30290;DHT22;17105;55.652;37.710;2023-02-28T10:36:23;2.20;68.80
30290;DHT22;17105;55.652;37.710;2023-02-28T10:36:59;2.20;68.90
30290;DHT22;17105;55.652;37.710;2023-02-28T10:37:43;2.20;68.90
30290;DHT22;17105;55.652;37.710;2023-02-28T10:38:21;2.20;68.90
30290;DHT22;17105;55.652;37.710;2023-02-28T10:38:57;2.20;68.90
30290;DHT22;17105;55.652;37.710;2023-02-28T10:39:39;2.30;68.90
30290;DHT22;17105;55.652;37.710;2023-02-28T10:40:30;2.30;68.90
30290;DHT22;17105;55.652;37.710;2023-02-28T10:41:06;2.30;68.90
30290;DHT22;17105;55.652;37.710;2023-02-28T10:41:43;2.30;68.90
30290;DHT22;17105;55.652;37.710;2023-02-28T10:42:21;2.30;68.80
30290;DHT22;17105;55.652;37.710;2023-02-28T10:43:00;2.30;68.80
30290;DHT22;17105;55.652;37.710;2023-02-28T10:43:35;2.30;68.40
30290;DHT22;17105;55.652;37.710;2023-02-28T10:44:19;2.30;68.40
30290;DHT22;17105;55.652;37.710;2023-02-28T10:45:11;2.30;68.40
30290;DHT22;17105;55.652;37.710;2023-02-28T10:45:59;2.30;68.50
30290;DHT22;17105;55.652;37.710;2023-02-28T10:46:35;2.30;68.40
30290;DHT22;17105;55.652;37.710;2023-02-28T10:47:14;2.30;68.50
30290;DHT22;17105;55.652;37.710;2023-02-28T10:47:52;2.30;68.80
30290;DHT22;17105;55.652;37.710;2023-02-28T10:48:33;2.30;68.90
30290;DHT22;17105;55.652;37.710;2023-02-28T10:49:14;2.20;68.80
30290;DHT22;17105;55.652;37.710;2023-02-28T10:49:51;2.20;68.70
30290;DHT22;17105;55.652;37.710;2023-02-28T10:50:39;2.30;68.80
30290;DHT22;17105;55.652;37.710;2023-02-28T10:51:18;2.20;68.80
30290;DHT22;17105;55.652;37.710;2023-02-28T10:51:53;2.20;68.90
30290;DHT22;17105;55.652;37.710;2023-02-28T10:52:35;2.20;68.90
30290;DHT22;17105;55.652;37.710;2023-02-28T10:53:33;2.30;68.90
30290;DHT22;17105;55.652;37.710;2023-02-28T10:54:32;2.20;68.90
30290;DHT22;17105;55.652;37.710;2023-02-28T10:55:18;2.20;69.20
30290;DHT22;17105;55.652;37.710;2023-02-28T10:56:01;2.20;69.20
30290;DHT22;17105;55.652;37.710;2023-02-28T10:56:36;2.20;69.30
30290;DHT22;17105;55.652;37.710;2023-02-28T10:57:16;2.20;69.30
30290;DHT22;17105;55.652;37.710;2023-02-28T10:57:52;2.20;69.20
30290;DHT22;17105;55.652;37.710;2023-02-28T10:58:28;2.20;69.10
30290;DHT22;17105;55.652;37.710;2023-02-28T10:59:03;2.20;69.20
30290;DHT22;17105;55.652;37.710;2023-02-28T11:00:15;2.20;69.30
30290;DHT22;17105;55.652;37.710;2023-02-28T11:00:51;2.20;69.60
30290;DHT22;17105;55.652;37.710;2023-02-28T11:01:35;2.20;69.60
30290;DHT22;17105;55.652;37.710;2023-02-28T11:02:29;2.20;69.60
30290;DHT22;17105;55.652;37.710;2023-02-28T11:03:28;2.10;69.70
30290;DHT22;17105;55.652;37.710;2023-02-28T11:04:03;2.10;69.80
30290;DHT22;17105;55.652;37.710;2023-02-28T11:04:38;2.10;69.80
30290;DHT22;17105;55.652;37.710;2023-02-28T11:05:27;2.10;69.80
30290;DHT22;17105;55.652;37.710;2023-02-28T11:06:13;2.10;69.80
30290;DHT22;17105;55.652;37.710;2023-02-28T11:06:48;2.00;70.10
30290;DHT22;17105;55.652;37.710;2023-02-28T11:07:30;2.00;70.50
30290;DHT22;17105;55.652;37.710;2023-02-28T11:08:22;2.00;70.70
30290;DHT22;17105;55.652;37.710;2023-02-28T11:08:59;1.90;70.70
30290;DHT22;17105;55.652;37.710;2023-02-28T11:09:35;1.90;70.80
30290;DHT22;17105;55.652;37.710;2023-02-28T11:10:18;1.80;71.00
30290;DHT22;17105;55.652;37.710;2023-02-28T11:10:58;1.80;71.20
30290;DHT22;17105;55.652;37.710;2023-02-28T11:11:43;1.80;71.40
30290;DHT22;17105;55.652;37.710;2023-02-28T11:12:40;1.80;71.60
30290;DHT22;17105;55.652;37.710;2023-02-28T11:13:33;1.80;71.70
30290;DHT22;17105;55.652;37.710;2023-02-28T11:14:18;1.80;71.90
30290;DHT22;17105;55.652;37.710;2023-02-28T11:14:58;1.80;71.90
30290;DHT22;17105;55.652;37.710;2023-02-28T11:15:35;1.80;72.00
30290;DHT22;17105;55.652;37.710;2023-02-28T11:16:11;1.80;72.00
30290;DHT22;17105;55.652;37.710;2023-02-28T11:16:46;1.80;71.90
30290;DHT22;17105;55.652;37.710;2023-02-28T11:17:23;1.80;72.00
30290;DHT22;17105;55.652;37.710;2023-02-28T11:18:00;1.80;72.00
30290;DHT22;17105;55.652;37.710;2023-02-28T11:18:41;1.80;72.00
30290;DHT22;17105;55.652;37.710;2023-02-28T11:19:22;1.80;72.10
30290;DHT22;17105;55.652;37.710;2023-02-28T11:19:59;1.80;72.10
30290;DHT22;17105;55.652;37.710;2023-02-28T11:20:35;1.90;72.30
30290;DHT22;17105;55.652;37.710;2023-02-28T11:21:10;1.90;72.20
30290;DHT22;17105;55.652;37.710;2023-02-28T11:21:51;1.90;72.40
30290;DHT22;17105;55.652;37.710;2023-02-28T11:22:29;2.00;72.50
30290;DHT22;17105;55.652;37.710;2023-02-28T11:23:05;1.90;72.50
30290;DHT22;17105;55.652;37.710;2023-02-28T11:23:44;1.90;72.50
30290;DHT22;17105;55.652;37.710;2023-02-28T11:24:24;1.90;72.40
30290;DHT22;17105;55.652;37.710;2023-02-28T11:25:02;1.90;72.50
30290;DHT22;17105;55.652;37.710;2023-02-28T11:25:37;1.90;72.60
30290;DHT22;17105;55.652;37.710;2023-02-28T11:26:35;1.90;72.70
30290;DHT22;17105;55.652;37.710;2023-02-28T11:27:25;1.90;72.90
30290;DHT22;17105;55.652;37.710;2023-02-28T11:28:02;1.90;72.90
30290;DHT22;17105;55.652;37.710;2023-02-28T11:28:41;1.90;73.00
30290;DHT22;17105;55.652;37.710;2023-02-28T11:29:22;1.90;73.00
30290;DHT22;17105;55.652;37.710;2023-02-28T11:29:57;1.90;73.10
30290;DHT22;17105;55.652;37.710;2023-02-28T11:30:38;2.00;73.60
30290;DHT22;17105;55.652;37.710;2023-02-28T11:31:17;2.00;73.30
30290;DHT22;17105;55.652;37.710;2023-02-28T11:32:07;2.00;73.30
30290;DHT22;17105;55.652;37.710;2023-02-28T11:32:49;2.00;73.20
30290;DHT22;17105;55.652;37.710;2023-02-28T11:33:27;2.00;73.20
30290;DHT22;17105;55.652;37.710;2023-02-28T11:34:26;2.10;73.20
30290;DHT22;17105;55.652;37.710;2023-02-28T11:35:13;2.00;73.20
30290;DHT22;17105;55.652;37.710;2023-02-28T11:35:49;2.10;73.30
30290;DHT22;17105;55.652;37.710;2023-02-28T11:36:26;2.00;73.20
30290;DHT22;17105;55.652;37.710;2023-02-28T11:37:02;2.10;73.30
30290;DHT22;17105;55.652;37.710;2023-02-28T11:37:39;2.10;73.30
30290;DHT22;17105;55.652;37.710;2023-02-28T11:38:13;2.10;73.30
30290;DHT22;17105;55.652;37.710;2023-02-28T11:38:48;2.00;73.30
30290;DHT22;17105;55.652;37.710;2023-02-28T11:39:23;2.10;73.30
30290;DHT22;17105;55.652;37.710;2023-02-28T11:39:58;2.10;73.40
30290;DHT22;17105;55.652;37.710;2023-02-28T11:40:41;2.10;73.40
30290;DHT22;17105;55.652;37.710;2023-02-28T11:41:40;2.00;73.40
30290;DHT22;17105;55.652;37.710;2023-02-28T11:42:36;2.00;73.50
30290;DHT22;17105;55.652;37.710;2023-02-28T11:43:22;2.00;73.50
30290;DHT22;17105;55.652;37.710;2023-02-28T11:44:15;2.00;73.50
30290;DHT22;17105;55.652;37.710;2023-02-28T11:45:02;2.00;73.60
30290;DHT22;17105;55.652;37.710;2023-02-28T11:45:55;2.00;73.70
30290;DHT22;17105;55.652;37.710;2023-02-28T11:46:52;2.00;73.90
30290;DHT22;17105;55.652;37.710;2023-02-28T11:47:32;2.00;73.90
30290;DHT22;17105;55.652;37.710;2023-02-28T11:48:17;2.00;74.00
30290;DHT22;17105;55.652;37.710;2023-02-28T11:48:58;2.00;74.00
30290;DHT22;17105;55.652;37.710;2023-02-28T11:49:45;2.00;74.10
30290;DHT22;17105;55.652;37.710;2023-02-28T11:50:44;1.90;74.10
30290;DHT22;17105;55.652;37.710;2023-02-28T11:51:23;1.90;74.30
30290;DHT22;17105;55.652;37.710;2023-02-28T11:52:01;1.90;74.50
30290;DHT22;17105;55.652;37.710;2023-02-28T11:52:51;1.90;74.50
30290;DHT22;17105;55.652;37.710;2023-02-28T11:54:37;1.90;74.90
30290;DHT22;17105;55.652;37.710;2023-02-28T11:55:19;1.90;75.00
30290;DHT22;17105;55.652;37.710;2023-02-28T11:55:58;1.90;75.10
30290;DHT22;17105;55.652;37.710;2023-02-28T11:56:38;2.00;75.30
30290;DHT22;17105;55.652;37.710;2023-02-28T11:57:23;1.90;75.50
30290;DHT22;17105;55.652;37.710;2023-02-28T11:59:28;2.00;75.60
30290;DHT22;17105;55.652;37.710;2023-02-28T12:00:12;2.00;75.50
30290;DHT22;17105;55.652;37.710;2023-02-28T12:01:08;2.00;75.40
30290;DHT22;17105;55.652;37.710;2023-02-28T12:01:54;2.00;75.40
30290;DHT22;17105;55.652;37.710;2023-02-28T12:02:36;2.00;75.20
30290;DHT22;17105;55.652;37.710;2023-02-28T12:03:26;2.00;75.20
30290;DHT22;17105;55.652;37.710;2023-02-28T12:04:12;2.10;75.10
30290;DHT22;17105;55.652;37.710;2023-02-28T12:04:55;2.10;75.10
30290;DHT22;17105;55.652;37.710;2023-02-28T12:05:35;2.00;75.00
30290;DHT22;17105;55.652;37.710;2023-02-28T12:06:18;2.00;75.10
30290;DHT22;17105;55.652;37.710;2023-02-28T12:07:00;2.00;75.10
30290;DHT22;17105;55.652;37.710;2023-02-28T12:07:45;2.00;75.10
30290;DHT22;17105;55.652;37.710;2023-02-28T12:08:40;2.10;75.30
30290;DHT22;17105;55.652;37.710;2023-02-28T12:09:30;2.10;75.40
30290;DHT22;17105;55.652;37.710;2023-02-28T12:10:18;2.10;75.50
30290;DHT22;17105;55.652;37.710;2023-02-28T12:11:02;2.10;75.50
30290;DHT22;17105;55.652;37.710;2023-02-28T12:11:51;2.10;75.30
30290;DHT22;17105;55.652;37.710;2023-02-28T12:12:36;2.10;75.30
30290;DHT22;17105;55.652;37.710;2023-02-28T12:13:18;2.10;75.40
30290;DHT22;17105;55.652;37.710;2023-02-28T12:14:09;2.10;75.40
30290;DHT22;17105;55.652;37.710;2023-02-28T12:15:05;2.10;75.40
30290;DHT22;17105;55.652;37.710;2023-02-28T12:16:03;2.10;75.60
30290;DHT22;17105;55.652;37.710;2023-02-28T12:16:50;2.10;75.80
30290;DHT22;17105;55.652;37.710;2023-02-28T12:17:40;2.10;75.90
30290;DHT22;17105;55.652;37.710;2023-02-28T12:18:42;2.20;76.10
30290;DHT22;17105;55.652;37.710;2023-02-28T12:19:26;2.20;76.20
30290;DHT22;17105;55.652;37.710;2023-02-28T12:20:08;2.20;76.50
30290;DHT22;17105;55.652;37.710;2023-02-28T12:20:51;2.20;76.60
30290;DHT22;17105;55.652;37.710;2023-02-28T12:21:37;2.20;76.80
30290;DHT22;17105;55.652;37.710;2023-02-28T12:22:26;2.20;77.00
30290;DHT22;17105;55.652;37.710;2023-02-28T12:23:35;2.20;77.10
30290;DHT22;17105;55.652;37.710;2023-02-28T12:24:30;2.20;77.20
30290;DHT22;17105;55.652;37.710;2023-02-28T12:25:42;2.20;77.30
30290;DHT22;17105;55.652;37.710;2023-02-28T12:26:24;2.10;77.90
30290;DHT22;17105;55.652;37.710;2023-02-28T12:27:03;2.10;77.80
30290;DHT22;17105;55.652;37.710;2023-02-28T12:27:43;2.10;78.00
30290;DHT22;17105;55.652;37.710;2023-02-28T12:28:23;2.10;78.00
30290;DHT22;17105;55.652;37.710;2023-02-28T12:29:02;2.10;78.20
30290;DHT22;17105;55.652;37.710;2023-02-28T12:29:47;2.10;78.20
30290;DHT22;17105;55.652;37.710;2023-02-28T12:30:25;2.10;78.50
30290;DHT22;17105;55.652;37.710;2023-02-28T12:31:09;2.10;78.60
30290;DHT22;17105;55.652;37.710;2023-02-28T12:31:49;2.10;78.60
30290;DHT22;17105;55.652;37.710;2023-02-28T12:32:29;2.10;78.60
30290;DHT22;17105;55.652;37.710;2023-02-28T12:33:08;2.10;78.70
30290;DHT22;17105;55.652;37.710;2023-02-28T12:33:46;2.00;78.80
30290;DHT22;17105;55.652;37.710;2023-02-28T12:34:25;2.00;78.90
30290;DHT22;17105;55.652;37.710;2023-02-28T12:35:02;2.00;79.00
30290;DHT22;17105;55.652;37.710;2023-02-28T12:35:41;2.00;79.10
30290;DHT22;17105;55.652;37.710;2023-02-28T12:36:18;1.90;79.10
30290;DHT22;17105;55.652;37.710;2023-02-28T12:36:56;1.90;79.30
30290;DHT22;17105;55.652;37.710;2023-02-28T12:37:38;2.00;79.40
30290;DHT22;17105;55.652;37.710;2023-02-28T12:38:20;1.90;79.50
30290;DHT22;17105;55.652;37.710;2023-02-28T12:39:00;1.90;79.60
30290;DHT22;17105;55.652;37.710;2023-02-28T12:39:37;1.90;79.70
30290;DHT22;17105;55.652;37.710;2023-02-28T12:40:25;1.90;79.80
30290;DHT22;17105;55.652;37.710;2023-02-28T12:41:02;1.90;80.10
30290;DHT22;17105;55.652;37.710;2023-02-28T12:41:40;1.90;80.10
30290;DHT22;17105;55.652;37.710;2023-02-28T12:42:22;1.90;80.20
30290;DHT22;17105;55.652;37.710;2023-02-28T12:43:03;1.90;80.40
30290;DHT22;17105;55.652;37.710;2023-02-28T12:43:40;1.90;80.50
30290;DHT22;17105;55.652;37.710;2023-02-28T12:44:18;1.90;80.70
30290;DHT22;17105;55.652;37.710;2023-02-28T12:44:58;1.90;80.90
30290;DHT22;17105;55.652;37.710;2023-02-28T12:45:40;1.90;80.80
30290;DHT22;17105;55.652;37.710;2023-02-28T12:46:21;1.90;80.80
30290;DHT22;17105;55.652;37.710;2023-02-28T12:47:01;1.90;81.00
30290;DHT22;17105;55.652;37.710;2023-02-28T12:47:38;1.90;81.20
30290;DHT22;17105;55.652;37.710;2023-02-28T12:48:15;1.90;81.20
30290;DHT22;17105;55.652;37.710;2023-02-28T12:48:54;1.90;81.30
30290;DHT22;17105;55.652;37.710;2023-02-28T12:49:33;1.90;81.30
30290;DHT22;17105;55.652;37.710;2023-02-28T12:50:11;1.90;81.50
30290;DHT22;17105;55.652;37.710;2023-02-28T12:50:48;1.90;81.50
30290;DHT22;17105;55.652;37.710;2023-02-28T12:51:21;1.90;81.70
30290;DHT22;17105;55.652;37.710;2023-02-28T12:51:56;1.90;81.60
30290;DHT22;17105;55.652;37.710;2023-02-28T12:52:40;1.90;81.70
30290;DHT22;17105;55.652;37.710;2023-02-28T12:53:22;1.90;81.80
30290;DHT22;17105;55.652;37.710;2023-02-28T12:54:07;1.90;81.80
30290;DHT22;17105;55.652;37.710;2023-02-28T12:54:48;1.90;82.50
30290;DHT22;17105;55.652;37.710;2023-02-28T12:55:29;1.90;81.90
30290;DHT22;17105;55.652;37.710;2023-02-28T12:56:15;1.90;82.10
30290;DHT22;17105;55.652;37.710;2023-02-28T12:56:56;1.80;82.30
30290;DHT22;17105;55.652;37.710;2023-02-28T12:57:44;1.80;82.40
30290;DHT22;17105;55.652;37.710;2023-02-28T12:58:29;1.80;82.70
30290;DHT22;17105;55.652;37.710;2023-02-28T12:59:13;1.80;83.00
30290;DHT22;17105;55.652;37.710;2023-02-28T12:59:50;1.80;83.00
30290;DHT22;17105;55.652;37.710;2023-02-28T13:00:31;1.80;83.10
30290;DHT22;17105;55.652;37.710;2023-02-28T13:01:33;1.80;83.20
30290;DHT22;17105;55.652;37.710;2023-02-28T13:03:42;1.80;83.50
30290;DHT22;17105;55.652;37.710;2023-02-28T13:04:47;1.80;83.60
30290;DHT22;17105;55.652;37.710;2023-02-28T13:06:43;1.90;83.70
30290;DHT22;17105;55.652;37.710;2023-02-28T13:09:01;1.90;83.60
30290;DHT22;17105;55.652;37.710;2023-02-28T13:09:35;1.90;83.50
30290;DHT22;17105;55.652;37.710;2023-02-28T13:10:10;1.80;83.40
30290;DHT22;17105;55.652;37.710;2023-02-28T13:10:46;1.80;83.60
30290;DHT22;17105;55.652;37.710;2023-02-28T13:11:28;1.80;83.70
30290;DHT22;17105;55.652;37.710;2023-02-28T13:12:12;1.80;83.80
30290;DHT22;17105;55.652;37.710;2023-02-28T13:12:50;1.80;83.80
30290;DHT22;17105;55.652;37.710;2023-02-28T13:13:26;1.90;83.90
30290;DHT22;17105;55.652;37.710;2023-02-28T13:14:20;1.80;83.90
30290;DHT22;17105;55.652;37.710;2023-02-28T13:15:04;1.80;84.00
30290;DHT22;17105;55.652;37.710;2023-02-28T13:16:03;1.80;83.80
30290;DHT22;17105;55.652;37.710;2023-02-28T13:16:56;1.90;83.90
30290;DHT22;17105;55.652;37.710;2023-02-28T13:17:33;1.80;83.90
30290;DHT22;17105;55.652;37.710;2023-02-28T13:18:27;1.80;83.80
30290;DHT22;17105;55.652;37.710;2023-02-28T13:19:10;1.80;83.80
30290;DHT22;17105;55.652;37.710;2023-02-28T13:19:56;1.80;83.80
30290;DHT22;17105;55.652;37.710;2023-02-28T13:20:35;1.90;83.80
30290;DHT22;17105;55.652;37.710;2023-02-28T13:21:23;1.90;83.80
30290;DHT22;17105;55.652;37.710;2023-02-28T13:22:00;1.90;83.60
30290;DHT22;17105;55.652;37.710;2023-02-28T13:22:40;1.80;83.60
30290;DHT22;17105;55.652;37.710;2023-02-28T13:23:41;1.80;83.60
30290;DHT22;17105;55.652;37.710;2023-02-28T13:24:44;1.80;83.80
30290;DHT22;17105;55.652;37.710;2023-02-28T13:25:52;1.80;83.80
30290;DHT22;17105;55.652;37.710;2023-02-28T13:27:41;1.80;84.00
30290;DHT22;17105;55.652;37.710;2023-02-28T13:29:38;1.80;84.10
30290;DHT22;17105;55.652;37.710;2023-02-28T13:31:25;1.80;84.10
30290;DHT22;17105;55.652;37.710;2023-02-28T13:32:27;1.80;84.10
30290;DHT22;17105;55.652;37.710;2023-02-28T13:33:23;1.80;84.20
30290;DHT22;17105;55.652;37.710;2023-02-28T13:34:14;1.80;84.20
30290;DHT22;17105;55.652;37.710;2023-02-28T13:36:25;1.80;84.20
30290;DHT22;17105;55.652;37.710;2023-02-28T13:37:35;1.70;84.30
30290;DHT22;17105;55.652;37.710;2023-02-28T13:38:34;1.70;84.30
30290;DHT22;17105;55.652;37.710;2023-02-28T13:39:45;1.70;84.60
30290;DHT22;17105;55.652;37.710;2023-02-28T13:40:29;1.70;84.50
30290;DHT22;17105;55.652;37.710;2023-02-28T13:42:35;1.70;84.70
30290;DHT22;17105;55.652;37.710;2023-02-28T13:43:10;1.70;84.80
30290;DHT22;17105;55.652;37.710;2023-02-28T13:44:01;1.70;84.80
30290;DHT22;17105;55.652;37.710;2023-02-28T13:45:22;1.70;85.00
30290;DHT22;17105;55.652;37.710;2023-02-28T13:46:12;1.70;85.20
30290;DHT22;17105;55.652;37.710;2023-02-28T13:47:21;1.70;85.30
30290;DHT22;17105;55.652;37.710;2023-02-28T13:48:00;1.70;85.30
30290;DHT22;17105;55.652;37.710;2023-02-28T13:48:36;1.70;85.20
30290;DHT22;17105;55.652;37.710;2023-02-28T13:49:25;1.70;85.30
30290;DHT22;17105;55.652;37.710;2023-02-28T13:50:23;1.80;85.30
30290;DHT22;17105;55.652;37.710;2023-02-28T13:50:58;1.80;85.40
30290;DHT22;17105;55.652;37.710;2023-02-28T13:51:41;1.80;85.40
30290;DHT22;17105;55.652;37.710;2023-02-28T13:52:23;1.80;85.40
30290;DHT22;17105;55.652;37.710;2023-02-28T13:54:24;1.80;85.50
30290;DHT22;17105;55.652;37.710;2023-02-28T13:55:30;1.80;85.50
30290;DHT22;17105;55.652;37.710;2023-02-28T13:56:23;1.80;85.40
30290;DHT22;17105;55.652;37.710;2023-02-28T13:57:10;1.80;85.50
30290;DHT22;17105;55.652;37.710;2023-02-28T13:58:00;1.80;85.50
30290;DHT22;17105;55.652;37.710;2023-02-28T13:58:53;1.80;85.40
30290;DHT22;17105;55.652;37.710;2023-02-28T13:59:35;1.90;85.60
30290;DHT22;17105;55.652;37.710;2023-02-28T14:00:21;1.80;85.50
30290;DHT22;17105;55.652;37.710;2023-02-28T14:01:12;1.80;85.50
30290;DHT22;17105;55.652;37.710;2023-02-28T14:02:03;1.90;85.60
30290;DHT22;17105;55.652;37.710;2023-02-28T14:03:07;1.90;85.70
30290;DHT22;17105;55.652;37.710;2023-02-28T14:05:05;1.90;85.70
30290;DHT22;17105;55.652;37.710;2023-02-28T14:05:40;1.80;85.60
30290;DHT22;17105;55.652;37.710;2023-02-28T14:06:23;1.90;85.80
30290;DHT22;17105;55.652;37.710;2023-02-28T14:06:59;1.90;85.80
30290;DHT22;17105;55.652;37.710;2023-02-28T14:07:40;1.90;85.80
30290;DHT22;17105;55.652;37.710;2023-02-28T14:08:19;1.90;85.90
30290;DHT22;17105;55.652;37.710;2023-02-28T14:08:59;1.90;86.00
30290;DHT22;17105;55.652;37.710;2023-02-28T14:09:37;1.90;86.00
30290;DHT22;17105;55.652;37.710;2023-02-28T14:10:24;1.90;86.00
30290;DHT22;17105;55.652;37.710;2023-02-28T14:11:04;1.90;86.20
30290;DHT22;17105;55.652;37.710;2023-02-28T14:11:41;1.90;86.10
30290;DHT22;17105;55.652;37.710;2023-02-28T14:13:39;1.90;86.10
30290;DHT22;17105;55.652;37.710;2023-02-28T14:14:55;1.90;86.30
30290;DHT22;17105;55.652;37.710;2023-02-28T14:15:46;1.90;86.30
30290;DHT22;17105;55.652;37.710;2023-02-28T14:16:22;1.90;86.50
30290;DHT22;17105;55.652;37.710;2023-02-28T14:17:01;1.90;86.40